LPFRLEBZ

Guest
Details From LPFR - Faro
To LEBZ - Talavera La Real
Flight Number -
Tags generated
Created
Modified
Stats Distance 126 nm / 233 km
Max Altitude 8,800 ft / 2,682 m
Waypoints 3
Social Downloads 0
Likes 0
Share VATSIM

Download

Looking for another format? Having issues loading an existing format? Contact us
Advertisement - Login to hide

Notes

Basic altitude profile: - Ascent Rate: 2500ft/min - Ascent Speed: 250kts - Cruise Altitude: 35000ft - Cruise Speed: 420kts - Descent Rate: 1500ft/min - Descent Speed: 250kts Options: - Use NATs: yes - Use PACOTS: yes - Use low airways: yes - Use high airways: yes

Route

LPFR MARIM LEBZ

ID Type Via Altitude Latitude Longitude Leg Dist Tot Dist Heading (true) Name
O LPFR APT - 0 ft / 0 m 37.01534˚ -7.97233˚ - 0 nm - Faro
MARIM FIX - 8,800 ft / 2,682 m 37.41667˚ -7.84111˚ 24 nm 24 nm 15° / 15° -
O LEBZ APT - 0 ft / 0 m 38.89127˚ -6.82126˚ 100 nm 125 nm 28° / 29° Talavera La Real

Altitude Profile

Advertisement - Login to hide

LPFR

Details ICAO LPFR (FAO)
Name Faro
Region Portugal
Timezone Europe/Lisbon (UTC+0.0)
Stats Elevation 24 ft / 7 m (AMSL)
Location 37.015336° -7.972327°
Runways 1
Magnetic Variation 1.934° W

METAR

LPFR 181430Z 10010KT 070V130 CAVOK 16/05 Q1029

Decode

TAF

TAF LPFR 181100Z 1812/1912 08012KT CAVOK BECMG 1814/1817 02007KT BECMG 1900/1902 VRB03KT BECMG 1910/1912 09010KT

Decode

Departure Runways

ID Width Length Bearing (true) Bearing (mag) Surface Threshold Offset Overrun Length
10 148 ft / 45 m 8,148 ft / 2,484 m 100.08° 102.01° Asphalt 148 ft / 45 m 0 ft / 0 m
28 148 ft / 45 m 8,148 ft / 2,484 m 280.10° 282.03° Asphalt 148 ft / 45 m 0 ft / 0 m

LEBZ

Details ICAO LEBZ (BJZ)
Name Talavera La Real
Region Spain
Timezone Europe/Madrid (UTC+1.0)
Stats Elevation 609 ft / 186 m (AMSL)
Location 38.891271° -6.821256°
Runways 1
Magnetic Variation 1.618° W

METAR

LEBZ 181400Z VRB01KT CAVOK 13/02 Q1031

Decode

TAF

TAF LEBZ 181100Z 1812/1912 VRB03KT CAVOK TX12/1815Z TN02/1907Z

Decode

Destination Runways

ID Width Length Bearing (true) Bearing (mag) Surface Threshold Offset Overrun Length
13 197 ft / 60 m 9,350 ft / 2,850 m 125.72° 127.34° Asphalt 0 ft / 0 m 980 ft / 299 m
31 197 ft / 60 m 9,350 ft / 2,850 m 305.74° 307.36° Asphalt 0 ft / 0 m 980 ft / 299 m

Approach Navaids

Runway Type Ident Frequency Range Bearing (true) Bearing (mag) Slope Elevation
31 Localiser ITL 110.50 MHz 18 nm / 33 km 305.70° 307.32° - 609 ft / 186 m (AMSL)
31 Glidescope ITL 110.50 MHz 10 nm / 19 km 305.73° 307.35° 3.00° 609 ft / 186 m (AMSL)
31 DME ITL 110.50 MHz 18 nm / 33 km - - - 639 ft / 195 m (AMSL)